This is the latest recevied weather packets stored in our database for station/object AG1T-20. If no packets are shown the sender has not sent any weather packets the latest 10 day(s).
| Time | Temp. | Humidity | Pressure | Rain* | Wind** | Luminosity | Snow |
|---|---|---|---|---|---|---|---|
| 1787919004 | 20.56° C | 54% | 1020.2 hPa | 0 mm | - | 0 W/m² | - |
| 1787918405 | 21.11° C | 51% | 1020.2 hPa | 0 mm | - | 0 W/m² | - |
| 1787917804 | 21.11° C | 52% | 1020.4 hPa | 0 mm | - | 0 W/m² | - |
| 1787917204 | 20° C | 56% | 1020.4 hPa | 0 mm | - | 0 W/m² | - |
| 1787916604 | 20.56° C | 55% | 1020.4 hPa | 0 mm | - | 0 W/m² | - |
| 1787916004 | 21.67° C | 50% | 1020.4 hPa | 0 mm | - | 0 W/m² | - |
| 1787915404 | 21.11° C | 49% | 1020.4 hPa | 0 mm | - | 0 W/m² | - |
| 1787914804 | 21.67° C | 49% | 1020.4 hPa | 0 mm | - | 0 W/m² | - |
| 1787914205 | 21.11° C | 48% | 1020.5 hPa | 0 mm | - | 0 W/m² | - |
| 1787913605 | 20.56° C | 50% | 1020.5 hPa | 0 mm | - | 0 W/m² | - |
| 1787913004 | 21.11° C | 51% | 1020.5 hPa | 0 mm | - | 0 W/m² | - |
| 1787912404 | 21.11° C | 51% | 1020.5 hPa | 0 mm | - | 0 W/m² | - |
| 1787911805 | 21.11° C | 51% | 1020.5 hPa | 0 mm | - | 0 W/m² | - |
| 1787911204 | 21.67° C | 48% | 1020.5 hPa | 0 mm | - | 0 W/m² | - |
| 1787910604 | 22.22° C | 46% | 1020.7 hPa | 0 mm | - | 0 W/m² | - |
| 1787910004 | 22.22° C | 46% | 1020.7 hPa | 0 mm | - | 0 W/m² | - |
| 1787909404 | 22.22° C | 46% | 1020.7 hPa | 0 mm | - | 0 W/m² | - |
| 1787908804 | 22.22° C | 46% | 1020.7 hPa | 0 mm | - | 0 W/m² | - |
| 1787908205 | 22.78° C | 44% | 1020.7 hPa | 0 mm | - | 0 W/m² | - |
| 1787907605 | 23.33° C | 43% | 1020.7 hPa | 0 mm | - | 0 W/m² | - |
| 1787907004 | 23.33° C | 43% | 1020.9 hPa | 0 mm | - | 0 W/m² | - |
| 1787906404 | 22.78° C | 44% | 1020.9 hPa | 0 mm | - | 0 W/m² | - |
| 1787905804 | 21.67° C | 47% | 1020.9 hPa | 0 mm | - | 0 W/m² | - |
| 1787905204 | 21.67° C | 47% | 1020.9 hPa | 0 mm | - | 0 W/m² | - |
| 1787904604 | 22.22° C | 45% | 1020.9 hPa | 0 mm | - | 0 W/m² | - |
* Rain latest hour (hover to see other rain measurements)
** Current wind speed in m/s (hover to see current wind gust speed)